Hibernia, New Jersey
Current Conditions -  °F | °C
As of 7:45 PM on Thursday 18 Dec 2014 (Local Time) from KMMU Reporting Station
Broken Clouds Broken Clouds  
Wind Chill: 36°   Ceiling: 3500
Heat Index: 39°   Visibility: 10mi
Dew Point: 28°   Wind: 5mph
Humidity: 65%   Direction: 330°NNW
Pressure: 29.99"   Gusts: NA
Location:  40.94°N, 74.49°W
Report Text: KMMU 190045Z 33004KT 10SM BKN035 04/M02 A2999
Loading
Personal Weather Stations






























Interactive Weather Map New forecast layout! Learn more

10-Day Weather Forecast

Advertisements
Track Severe Weather on mobile